PrinceSS Juana K — HPFV — position and weather

sailwx.info

Track history (hours):
 
Tides and Currents Weather Stations Pressure Air Temp Water Temp Dewpoint Dewpoint Depression Visibility Wind Speed Wind Dir Waves Ship Positions

PrinceSS Juana K

Last reported at 2014-Dec-21 00:33 UTC. Time now 2014-Dec-21 01:07 UTC.
Position N 44°24' E 037°51'.

Length 145 m; draft 5 m.

Type: Cargo ship. MMSI: 352982000.

Date/timePositionNaut miles runAvg speedWind from/ knotsBaromVisibWave heightAir tempDewpointWater temp
2014-Dec-21 00:33N 44°24' E 037°51'2 1.7
2014-Dec-20 23:33N 44°23' E 037°49'2 1.8
2014-Dec-20 22:33N 44°22' E 037°48'2 1.8
2014-Dec-20 21:32N 44°20' E 037°46'3 2.8
2014-Dec-20 20:33N 44°23' E 037°47'6 6.4
2014-Dec-20 19:33N 44°28' E 037°53'2 1.7
2014-Dec-20 18:33N 44°27' E 037°51'2 1.9
2014-Dec-20 17:33N 44°25' E 037°49'2 1.7
2014-Dec-20 16:32N 44°24' E 037°48'1 0.9
2014-Dec-20 15:33N 44°24' E 037°46'7 7.0
2014-Dec-20 14:34N 44°30' E 037°52'1 1.5
2014-Dec-20 13:33N 44°29' E 037°50'2 1.6
2014-Dec-20 12:34N 44°27' E 037°49'2 1.7
2014-Dec-20 11:33N 44°26' E 037°47'2 1.6
2014-Dec-20 10:34N 44°25' E 037°45'2 1.6
2014-Dec-20 09:33N 44°24' E 037°44'4 3.6
2014-Dec-20 08:34N 44°27' E 037°42'6 6.3
2014-Dec-20 07:33N 44°26' E 037°34'9 9.0
2014-Dec-20 06:33N 44°22' E 037°22'120 9.3
2014-Dec-19 17:33N 44°07' E 034°36'9 9.4
2014-Dec-19 16:33N 44°07' E 034°22'9 9.1
2014-Dec-19 15:33N 44°07' E 034°10'10 8.9
2014-Dec-19 14:27N 44°07' E 033°56'  
Track history (hours):
 
Tides and Currents Weather Stations Pressure Air Temp Water Temp Dewpoint Dewpoint Depression Visibility Wind Speed Wind Dir Waves Ship Positions

PrinceSS Juana K

Last reported at 2014-Dec-21 00:33 UTC. Time now 2014-Dec-21 01:07 UTC.
Position N 44°24' E 037°51'.

Length 145 m; draft 5 m.

Type: Cargo ship. MMSI: 352982000.

Date/timePositionNaut miles runAvg speedWind from/ knotsBaromVisibWave heightAir tempDewpointWater temp
2014-Dec-21 00:33N 44°24' E 037°51'2 1.7
2014-Dec-20 23:33N 44°23' E 037°49'2 1.8
2014-Dec-20 22:33N 44°22' E 037°48'2 1.8
2014-Dec-20 21:32N 44°20' E 037°46'3 2.8
2014-Dec-20 20:33N 44°23' E 037°47'6 6.4
2014-Dec-20 19:33N 44°28' E 037°53'2 1.7
2014-Dec-20 18:33N 44°27' E 037°51'2 1.9
2014-Dec-20 17:33N 44°25' E 037°49'2 1.7
2014-Dec-20 16:32N 44°24' E 037°48'1 0.9
2014-Dec-20 15:33N 44°24' E 037°46'7 7.0
2014-Dec-20 14:34N 44°30' E 037°52'1 1.5
2014-Dec-20 13:33N 44°29' E 037°50'2 1.6
2014-Dec-20 12:34N 44°27' E 037°49'2 1.7
2014-Dec-20 11:33N 44°26' E 037°47'2 1.6
2014-Dec-20 10:34N 44°25' E 037°45'2 1.6
2014-Dec-20 09:33N 44°24' E 037°44'4 3.6
2014-Dec-20 08:34N 44°27' E 037°42'6 6.3
2014-Dec-20 07:33N 44°26' E 037°34'9 9.0
2014-Dec-20 06:33N 44°22' E 037°22'120 9.3
2014-Dec-19 17:33N 44°07' E 034°36'9 9.4
2014-Dec-19 16:33N 44°07' E 034°22'9 9.1
2014-Dec-19 15:33N 44°07' E 034°10'10 8.9
2014-Dec-19 14:27N 44°07' E 033°56'  

Dump ship's entire track history